Terminal Aerodrome Forecast
Issued by NWS

Home | Current Version | Previous Version | Text Only | Print | Product List | Glossary On
Versions: 1 2 3 4 5 6 7 8 9 10 11 12 13 14 15 16 17 18
000
FTUS46 KMTR 050536
TAFSTS
TAF
KSTS 050536Z 0506/0606 VRB03KT P6SM OVC015
     FM051000 VRB02KT 6SM BR OVC009
     FM051500 VRB04KT P6SM BKN012 OVC020
     FM051700 18003KT P6SM VCSH FEW012 SCT024 BKN100
     FM052100 18008KT P6SM VCSH SCT040 BKN080
     FM060300 16005KT P6SM VCSH SCT025 BKN040=

USA.gov is the U.S. government's official web portal to all federal, state and local government web resources and services.